createdAt,value
2019-03-08T00:01:05.801Z,1.83
2019-03-08T00:03:35.304Z,2.07
2019-03-08T00:06:05.801Z,1.77
2019-03-08T00:08:35.289Z,2.17
2019-03-08T00:11:04.865Z,1.97
2019-03-08T00:13:35.793Z,1.77
2019-03-08T00:16:05.523Z,1.70
2019-03-08T00:18:35.130Z,1.30
2019-03-08T00:21:04.808Z,1.40
2019-03-08T00:23:35.712Z,2.07
2019-03-08T00:26:06.520Z,1.30
2019-03-08T00:28:37.426Z,1.50
2019-03-08T00:31:07.099Z,1.60
2019-03-08T00:33:36.753Z,1.60
2019-03-08T00:36:06.229Z,1.80
2019-03-08T00:38:36.836Z,1.80
2019-03-08T00:41:06.310Z,1.90
2019-03-08T00:43:35.868Z,2.30
2019-03-08T00:46:05.596Z,2.10
2019-03-08T00:48:35.085Z,1.77
2019-03-08T00:51:04.859Z,1.70
2019-03-08T00:53:34.352Z,1.73
2019-03-08T00:56:05.148Z,1.80
2019-03-08T00:58:35.764Z,2.27
2019-03-08T01:01:05.637Z,1.33
2019-03-08T01:03:36.541Z,1.73
2019-03-08T01:06:06.035Z,1.70
2019-03-08T01:08:35.537Z,1.80
2019-03-08T01:11:05.240Z,1.80
2019-03-08T01:13:37.424Z,1.73
2019-03-08T01:16:06.903Z,1.73
2019-03-08T01:18:36.376Z,1.53
2019-03-08T01:21:06.325Z,1.50
2019-03-08T01:23:35.889Z,1.80
2019-03-08T01:26:06.109Z,2.03
2019-03-08T01:28:36.928Z,1.70
2019-03-08T01:31:06.851Z,1.60
2019-03-08T01:33:36.356Z,1.70
2019-03-08T01:36:05.841Z,1.63
2019-03-08T01:38:35.315Z,2.00
2019-03-08T01:41:04.812Z,1.73
2019-03-08T01:43:34.595Z,1.77
2019-03-08T01:46:04.201Z,1.60
2019-03-08T01:48:33.704Z,1.60
2019-03-08T01:51:03.257Z,1.87
2019-03-08T01:53:33.868Z,1.83
2019-03-08T01:56:03.356Z,1.80
2019-03-08T01:58:32.869Z,1.77
2019-03-08T02:01:02.378Z,1.33
2019-03-08T02:03:31.864Z,1.60
2019-03-08T02:06:01.369Z,1.50
2019-03-08T02:08:30.863Z,1.63
2019-03-08T02:11:00.566Z,1.73
2019-03-08T02:13:31.152Z,1.93
2019-03-08T02:16:00.668Z,2.17
2019-03-08T02:18:30.142Z,1.50
2019-03-08T02:21:06.819Z,1.50
2019-03-08T02:23:30.856Z,1.27
2019-03-08T02:26:00.328Z,1.97
2019-03-08T02:28:29.836Z,1.50
2019-03-08T02:30:59.323Z,1.17
2019-03-08T02:33:28.798Z,1.47
2019-03-08T02:35:59.402Z,2.47
2019-03-08T02:38:30.328Z,2.60
2019-03-08T02:41:00.800Z,2.03
2019-03-08T02:43:32.065Z,1.70
2019-03-08T02:46:01.546Z,1.60
2019-03-08T02:48:32.065Z,1.97
2019-03-08T02:51:01.661Z,1.77
2019-03-08T02:53:31.176Z,2.20
2019-03-08T02:56:00.706Z,1.60
2019-03-08T02:58:31.668Z,1.43
2019-03-08T03:01:01.140Z,1.50
2019-03-08T03:03:30.641Z,1.60
2019-03-08T03:06:00.155Z,1.73
2019-03-08T03:08:29.635Z,1.67
2019-03-08T03:11:00.216Z,1.40
2019-03-08T03:13:29.708Z,1.30
2019-03-08T03:15:59.194Z,1.70
2019-03-08T03:18:28.689Z,1.67
2019-03-08T03:20:58.165Z,1.63
2019-03-08T03:23:27.640Z,2.27
2019-03-08T03:25:58.079Z,2.20
2019-03-08T03:28:27.937Z,3.40
2019-03-08T03:30:57.709Z,2.00
2019-03-08T03:33:28.322Z,1.30
2019-03-08T03:35:57.812Z,2.10
2019-03-08T03:38:29.085Z,1.53
2019-03-08T03:40:58.589Z,1.70
2019-03-08T03:43:28.065Z,1.90
2019-03-08T03:45:57.584Z,2.33
2019-03-08T03:48:27.061Z,2.70
2019-03-08T03:50:56.538Z,1.53
2019-03-08T03:53:26.076Z,1.80
2019-03-08T03:55:55.557Z,1.73
2019-03-08T03:58:25.180Z,2.17
2019-03-08T04:00:55.157Z,1.40
2019-03-08T04:03:24.633Z,2.60
2019-03-08T04:05:54.140Z,1.70
2019-03-08T04:08:23.724Z,1.50
2019-03-08T04:10:53.229Z,1.50
2019-03-08T04:13:22.765Z,2.33
2019-03-08T04:15:52.253Z,2.00
2019-03-08T04:18:23.180Z,1.87
2019-03-08T04:20:52.690Z,1.77
2019-03-08T04:23:22.164Z,1.60
2019-03-08T04:25:51.680Z,1.93
2019-03-08T04:28:21.200Z,2.00
2019-03-08T04:30:50.690Z,2.73
2019-03-08T04:33:20.313Z,2.10
2019-03-08T04:35:50.893Z,1.87
2019-03-08T04:38:20.593Z,1.90
2019-03-08T04:40:51.581Z,2.13
2019-03-08T04:43:21.063Z,2.00
2019-03-08T04:45:50.536Z,2.13
2019-03-08T04:48:21.840Z,2.50
2019-03-08T04:50:51.356Z,2.40
2019-03-08T04:53:20.828Z,2.37
2019-03-08T04:55:50.336Z,2.63
2019-03-08T04:58:19.832Z,2.40
2019-03-08T05:00:49.752Z,2.00
2019-03-08T05:03:19.303Z,2.27
2019-03-08T05:05:50.879Z,2.77
2019-03-08T05:08:20.405Z,2.70
2019-03-08T05:10:49.982Z,2.00
2019-03-08T05:13:20.568Z,2.30
2019-03-08T05:15:50.045Z,2.37
2019-03-08T05:18:21.016Z,2.17
2019-03-08T05:20:50.492Z,2.40
2019-03-08T05:23:19.969Z,2.00
2019-03-08T05:25:49.529Z,2.90
2019-03-08T05:28:18.997Z,2.87
2019-03-08T05:30:48.473Z,2.53
2019-03-08T05:33:18.497Z,2.60
2019-03-08T05:35:47.977Z,2.93
2019-03-08T05:38:17.456Z,2.40
2019-03-08T05:40:46.957Z,3.57
2019-03-08T05:43:16.440Z,2.40
2019-03-08T05:45:45.925Z,2.43
2019-03-08T05:48:15.425Z,3.93
2019-03-08T05:50:44.916Z,2.00
2019-03-08T05:53:14.521Z,3.03
2019-03-08T05:55:45.093Z,2.37
2019-03-08T05:58:14.571Z,2.23
2019-03-08T06:00:44.373Z,2.60
2019-03-08T06:03:13.890Z,2.70
2019-03-08T06:05:43.400Z,2.80
2019-03-08T06:08:12.890Z,2.70
2019-03-08T06:10:42.380Z,2.80
2019-03-08T06:13:13.588Z,2.80
2019-03-08T06:15:45.129Z,3.00
2019-03-08T06:18:14.633Z,2.40
2019-03-08T06:20:44.112Z,2.73
2019-03-08T06:23:13.608Z,2.93
2019-03-08T06:25:43.366Z,3.00
2019-03-08T06:28:12.840Z,3.57
2019-03-08T06:30:42.325Z,3.43
2019-03-08T06:33:11.837Z,2.93
2019-03-08T06:35:42.828Z,3.77
2019-03-08T06:38:12.305Z,2.80
2019-03-08T06:40:43.605Z,2.33
2019-03-08T06:43:13.844Z,3.43
2019-03-08T06:45:43.352Z,2.73
2019-03-08T06:48:14.297Z,3.17
2019-03-08T06:50:43.777Z,2.50
2019-03-08T06:53:13.273Z,3.17
2019-03-08T06:55:42.773Z,2.97
2019-03-08T06:58:13.881Z,2.83
2019-03-08T07:01:01.008Z,3.53
2019-03-08T07:03:30.501Z,2.67
2019-03-08T07:05:59.997Z,3.23
2019-03-08T07:08:29.505Z,3.17
2019-03-08T07:10:59.010Z,2.77
2019-03-08T07:13:29.720Z,2.93
2019-03-08T07:16:00.200Z,2.70
2019-03-08T07:18:29.713Z,2.73
2019-03-08T07:21:19.581Z,2.40
2019-03-08T07:24:20.346Z,2.83
2019-03-08T07:27:09.060Z,2.57
2019-03-08T07:29:57.468Z,3.00
2019-03-08T07:32:41.349Z,2.90
2019-03-08T07:35:21.182Z,3.00
2019-03-08T07:38:01.926Z,2.53
2019-03-08T07:40:54.380Z,2.73
2019-03-08T07:43:30.941Z,2.73
2019-03-08T07:46:20.668Z,2.10
2019-03-08T07:49:11.868Z,3.83
2019-03-08T07:52:19.703Z,2.67
2019-03-08T07:55:06.891Z,1.90
2019-03-08T07:57:53.151Z,2.43
2019-03-08T08:00:35.988Z,2.57
2019-03-08T08:03:12.129Z,2.00
2019-03-08T08:06:03.333Z,2.30
2019-03-08T08:08:38.788Z,2.60
2019-03-08T08:11:22.244Z,3.50
2019-03-08T08:14:20.296Z,2.20
2019-03-08T08:17:05.606Z,1.50
2019-03-08T08:19:46.644Z,1.87
2019-03-08T08:22:35.012Z,1.90
2019-03-08T08:25:36.810Z,2.23
2019-03-08T08:28:09.149Z,2.30
2019-03-08T08:31:03.807Z,1.83
2019-03-08T08:33:54.986Z,2.30
2019-03-08T08:36:33.965Z,2.03
2019-03-08T08:39:18.445Z,2.30
2019-03-08T08:42:17.142Z,2.33
2019-03-08T08:44:56.873Z,2.40
2019-03-08T08:47:50.209Z,1.93
2019-03-08T08:50:29.880Z,1.97
2019-03-08T08:53:27.040Z,1.90
2019-03-08T08:56:22.969Z,1.37
2019-03-08T08:59:20.213Z,1.80
2019-03-08T09:02:10.632Z,1.73
2019-03-08T09:04:55.752Z,2.33
2019-03-08T09:07:46.714Z,2.13
2019-03-08T09:10:34.019Z,2.50
2019-03-08T09:13:10.142Z,1.50
2019-03-08T09:15:55.445Z,1.83
2019-03-08T09:18:42.640Z,1.70
2019-03-08T09:21:25.890Z,1.70
2019-03-08T09:24:01.925Z,1.83
2019-03-08T09:27:05.352Z,1.80
2019-03-08T09:29:54.184Z,1.50
2019-03-08T09:32:32.209Z,3.23
2019-03-08T09:35:22.895Z,2.57
2019-03-08T09:37:59.897Z,2.63
2019-03-08T09:41:19.515Z,1.73
2019-03-08T09:44:14.458Z,1.50
2019-03-08T09:47:11.754Z,1.67
2019-03-08T09:50:02.784Z,1.40
2019-03-08T09:52:38.984Z,1.73
2019-03-08T09:55:28.795Z,1.63
2019-03-08T09:58:13.948Z,1.40
2019-03-08T10:01:16.194Z,1.40
2019-03-08T10:03:53.725Z,1.50
2019-03-08T10:06:51.349Z,1.33
2019-03-08T10:09:32.047Z,1.83
2019-03-08T10:12:22.718Z,1.70
2019-03-08T10:15:11.123Z,1.93
2019-03-08T10:18:11.615Z,1.63
2019-03-08T10:21:15.122Z,1.77
2019-03-08T10:23:54.532Z,1.60
2019-03-08T10:26:51.888Z,1.80
2019-03-08T10:29:52.440Z,1.70
2019-03-08T10:32:37.308Z,1.10
2019-03-08T10:35:24.478Z,1.27
2019-03-08T10:38:06.428Z,1.90
2019-03-08T10:41:03.731Z,1.40
2019-03-08T10:43:52.139Z,1.57
2019-03-08T10:46:46.690Z,1.30
2019-03-08T10:49:37.793Z,1.70
2019-03-08T10:52:26.281Z,1.10
2019-03-08T10:55:13.277Z,1.70
2019-03-08T10:57:57.838Z,1.60
2019-03-08T11:00:44.623Z,1.50
2019-03-08T11:03:38.696Z,1.40
2019-03-08T11:06:42.404Z,1.37
2019-03-08T11:09:38.664Z,1.33
2019-03-08T11:12:21.592Z,1.87
2019-03-08T11:15:08.447Z,1.50
2019-03-08T11:17:53.592Z,1.30
2019-03-08T11:20:46.380Z,1.83
2019-03-08T11:23:40.700Z,1.47
2019-03-08T11:26:23.113Z,2.00
2019-03-08T11:29:17.607Z,1.80
2019-03-08T11:31:56.240Z,1.80
2019-03-08T11:34:34.555Z,2.00
2019-03-08T11:37:27.957Z,2.40
2019-03-08T11:40:18.941Z,1.50
2019-03-08T11:43:03.504Z,1.63
2019-03-08T11:45:58.232Z,1.70
2019-03-08T11:48:45.524Z,1.67
2019-03-08T11:51:34.984Z,1.80
2019-03-08T11:54:29.695Z,1.40
2019-03-08T11:57:26.016Z,1.77
2019-03-08T12:00:23.477Z,1.60
2019-03-08T12:03:20.768Z,2.23
2019-03-08T12:06:08.324Z,1.50
2019-03-08T12:08:50.951Z,3.47
2019-03-08T12:11:38.792Z,1.40
2019-03-08T12:14:18.036Z,1.87
2019-03-08T12:17:05.251Z,1.53
2019-03-08T12:19:43.563Z,1.70
2019-03-08T12:22:30.373Z,1.60
2019-03-08T12:25:09.193Z,1.70
2019-03-08T12:27:46.271Z,2.57
2019-03-08T12:30:33.595Z,1.70
2019-03-08T12:33:12.737Z,2.13
2019-03-08T12:35:52.960Z,1.70
2019-03-08T12:38:56.419Z,1.90
2019-03-08T12:41:41.064Z,2.07
2019-03-08T12:44:29.476Z,2.03
2019-03-08T12:47:20.808Z,1.77
2019-03-08T12:49:57.327Z,1.40
2019-03-08T12:52:54.609Z,2.00
2019-03-08T12:55:33.863Z,1.20
2019-03-08T12:58:22.240Z,1.93
2019-03-08T13:01:13.207Z,1.80
2019-03-08T13:04:00.016Z,1.87
2019-03-08T13:06:48.417Z,2.10
2019-03-08T13:09:37.141Z,1.30
2019-03-08T13:12:06.638Z,1.70
2019-03-08T13:14:36.100Z,1.93
2019-03-08T13:17:05.556Z,2.27
2019-03-08T13:19:35.244Z,1.70
2019-03-08T13:22:04.695Z,1.77
2019-03-08T13:24:34.084Z,1.70
2019-03-08T13:27:03.567Z,1.80
2019-03-08T13:29:33.020Z,1.80
2019-03-08T13:32:02.590Z,1.17
2019-03-08T13:34:32.124Z,2.13
2019-03-08T13:37:01.581Z,2.07
2019-03-08T13:39:31.076Z,1.40
2019-03-08T13:42:00.537Z,1.60
2019-03-08T13:44:29.992Z,1.80
2019-03-08T13:46:59.484Z,1.73
2019-03-08T13:49:28.944Z,1.73
2019-03-08T13:51:58.421Z,1.60
2019-03-08T13:54:27.891Z,1.80
2019-03-08T13:56:57.372Z,3.47
2019-03-08T13:59:26.833Z,2.07
2019-03-08T14:01:56.517Z,1.53
2019-03-08T14:04:26.008Z,1.73
2019-03-08T14:06:56.572Z,1.60
2019-03-08T14:09:26.028Z,2.40
2019-03-08T14:11:55.520Z,1.37
2019-03-08T14:14:24.988Z,1.70
2019-03-08T14:16:54.472Z,2.50
2019-03-08T14:19:23.931Z,2.57
2019-03-08T14:21:53.394Z,1.53
2019-03-08T14:24:23.157Z,1.80
2019-03-08T14:26:52.626Z,1.43
2019-03-08T14:29:23.608Z,1.70
2019-03-08T14:32:15.272Z,1.63
2019-03-08T14:34:44.765Z,1.60
2019-03-08T14:37:16.115Z,2.03
2019-03-08T14:39:45.642Z,1.80
2019-03-08T14:42:23.520Z,2.07
2019-03-08T14:45:03.591Z,1.63
2019-03-08T14:47:41.284Z,1.57
2019-03-08T14:50:12.149Z,2.20
2019-03-08T14:52:41.664Z,1.90
2019-03-08T14:55:14.651Z,2.03
2019-03-08T14:57:44.116Z,2.80
2019-03-08T15:00:19.240Z,2.10
2019-03-08T15:02:48.726Z,1.90
2019-03-08T15:05:19.052Z,2.07
2019-03-08T15:07:49.479Z,1.40
2019-03-08T15:10:20.076Z,1.63
2019-03-08T15:12:49.745Z,2.00
2019-03-08T15:15:21.196Z,1.70
2019-03-08T15:17:53.676Z,2.23
2019-03-08T15:20:21.871Z,1.80
2019-03-08T15:22:51.520Z,1.50
2019-03-08T15:25:20.996Z,1.57
2019-03-08T15:27:50.379Z,2.60
2019-03-08T15:30:20.108Z,2.30
2019-03-08T15:32:49.540Z,1.90
2019-03-08T15:35:19.248Z,1.53
2019-03-08T15:37:48.653Z,1.70
2019-03-08T15:40:19.443Z,1.77
2019-03-08T15:42:48.909Z,2.00
2019-03-08T15:45:18.364Z,1.67
2019-03-08T15:47:48.220Z,1.93
2019-03-08T15:50:17.924Z,1.70
2019-03-08T15:52:47.391Z,1.50
2019-03-08T15:55:16.871Z,1.73
2019-03-08T15:57:46.365Z,1.73
2019-03-08T16:00:17.666Z,1.70
2019-03-08T16:02:47.111Z,1.53
2019-03-08T16:05:16.732Z,1.87
2019-03-08T16:07:46.121Z,1.50
2019-03-08T16:10:16.656Z,1.63
2019-03-08T16:12:47.844Z,1.20
2019-03-08T16:15:17.712Z,1.73
2019-03-08T16:17:47.191Z,1.60
2019-03-08T16:20:16.732Z,1.70
2019-03-08T16:22:46.148Z,1.37
2019-03-08T16:25:16.330Z,1.80
2019-03-08T16:27:45.788Z,1.20
2019-03-08T16:30:24.432Z,1.73
2019-03-08T16:33:02.025Z,1.60
2019-03-08T16:35:39.158Z,1.63
2019-03-08T16:38:22.440Z,1.30
2019-03-08T16:41:10.905Z,1.20
2019-03-08T16:43:55.448Z,1.50
2019-03-08T16:46:40.640Z,1.50
2019-03-08T16:49:18.707Z,1.77
2019-03-08T16:51:58.316Z,1.30
2019-03-08T16:54:35.460Z,1.40
2019-03-08T16:57:26.632Z,1.93
2019-03-08T17:00:12.044Z,2.20
2019-03-08T17:03:03.599Z,2.77
2019-03-08T17:05:51.976Z,1.47
2019-03-08T17:08:52.692Z,1.47
2019-03-08T17:11:34.054Z,2.00
2019-03-08T17:14:14.948Z,3.00
2019-03-08T17:16:49.953Z,2.30
2019-03-08T17:19:41.378Z,2.10
2019-03-08T17:22:35.626Z,2.37
2019-03-08T17:25:23.723Z,1.93
2019-03-08T17:28:02.856Z,1.90
2019-03-08T17:30:48.024Z,2.40
2019-03-08T17:33:28.780Z,2.50
2019-03-08T17:36:27.129Z,2.00
2019-03-08T17:39:08.438Z,2.23
2019-03-08T17:41:53.734Z,3.00
2019-03-08T17:44:42.077Z,2.60
2019-03-08T17:47:17.479Z,3.10
2019-03-08T17:50:02.464Z,2.13
2019-03-08T17:52:59.707Z,2.30
2019-03-08T17:55:46.523Z,1.93
2019-03-08T17:58:31.172Z,2.00
2019-03-08T18:01:34.372Z,2.40
2019-03-08T18:04:25.601Z,2.70
2019-03-08T18:07:32.226Z,2.30
2019-03-08T18:10:16.611Z,2.23
2019-03-08T18:13:04.072Z,2.50
2019-03-08T18:15:47.155Z,2.20
2019-03-08T18:18:47.444Z,1.93
2019-03-08T18:21:24.159Z,2.53
2019-03-08T18:24:12.551Z,1.80
2019-03-08T18:26:55.321Z,2.17
2019-03-08T18:29:44.416Z,2.33
2019-03-08T18:32:27.408Z,1.80
2019-03-08T18:35:07.384Z,2.23
2019-03-08T18:37:55.727Z,2.23
2019-03-08T18:40:42.985Z,2.00
2019-03-08T18:43:35.193Z,2.43
2019-03-08T18:46:23.599Z,2.23
2019-03-08T18:49:24.278Z,2.00
2019-03-08T18:52:18.264Z,2.80
2019-03-08T18:55:06.569Z,2.20
2019-03-08T18:57:44.699Z,2.77
2019-03-08T19:00:29.774Z,3.83
2019-03-08T19:03:20.788Z,3.90
2019-03-08T19:06:10.143Z,3.03
2019-03-08T19:08:47.719Z,3.43
2019-03-08T19:11:36.121Z,2.50
2019-03-08T19:14:27.297Z,2.60
2019-03-08T19:17:24.432Z,2.30
2019-03-08T19:20:22.166Z,2.40
2019-03-08T19:23:04.842Z,2.60
2019-03-08T19:26:01.937Z,2.30
2019-03-08T19:28:55.357Z,2.60
2019-03-08T19:31:43.671Z,3.30
2019-03-08T19:34:35.015Z,3.10
2019-03-08T19:37:32.493Z,3.40
2019-03-08T19:40:28.013Z,3.27
2019-03-08T19:43:19.120Z,3.27
2019-03-08T19:46:07.045Z,3.03
2019-03-08T19:48:54.035Z,2.23
2019-03-08T19:51:35.632Z,2.40
2019-03-08T19:54:30.269Z,3.93
2019-03-08T19:57:18.604Z,2.60
2019-03-08T20:00:05.976Z,2.20
2019-03-08T20:02:55.145Z,2.57
2019-03-08T20:05:55.377Z,2.53
2019-03-08T20:08:34.527Z,3.30
2019-03-08T20:11:13.752Z,1.93
2019-03-08T20:14:07.962Z,2.93
2019-03-08T20:17:05.174Z,2.50
2019-03-08T20:19:54.462Z,2.47
2019-03-08T20:22:44.147Z,2.80
2019-03-08T20:25:26.860Z,2.80
2019-03-08T20:28:12.726Z,3.20
2019-03-08T20:31:18.954Z,2.70
2019-03-08T20:33:56.437Z,2.90
2019-03-08T20:36:37.283Z,2.20
2019-03-08T20:39:34.811Z,2.83
2019-03-08T20:42:09.378Z,3.47
2019-03-08T20:45:00.523Z,3.97
2019-03-08T20:47:31.729Z,3.33
2019-03-08T20:50:01.396Z,2.90
2019-03-08T20:52:30.865Z,3.00
2019-03-08T20:55:01.272Z,2.83
2019-03-08T20:57:30.736Z,3.00
2019-03-08T21:00:00.363Z,2.17
2019-03-08T21:02:30.086Z,2.73
2019-03-08T21:04:59.550Z,2.50
2019-03-08T21:07:29.040Z,2.10
2019-03-08T21:09:58.508Z,2.10
2019-03-08T21:12:27.975Z,2.37
2019-03-08T21:14:57.455Z,2.60
2019-03-08T21:17:26.861Z,2.60
2019-03-08T21:19:56.271Z,2.53
2019-03-08T21:22:25.665Z,2.93
2019-03-08T21:24:55.128Z,2.77
2019-03-08T21:27:24.524Z,3.17
2019-03-08T21:29:53.985Z,4.80
2019-03-08T21:32:25.280Z,2.90
2019-03-08T21:34:54.676Z,2.47
2019-03-08T21:37:24.493Z,3.13
2019-03-08T21:39:55.972Z,2.23
2019-03-08T21:42:25.430Z,2.63
2019-03-08T21:44:54.893Z,2.50
2019-03-08T21:47:24.311Z,3.10
2019-03-08T21:49:53.785Z,2.80
2019-03-08T21:52:23.334Z,2.60
2019-03-08T21:54:52.832Z,2.70
2019-03-08T21:57:22.219Z,2.67
2019-03-08T21:59:51.617Z,2.00
2019-03-08T22:02:21.098Z,2.00
2019-03-08T22:04:57.493Z,3.60
2019-03-08T22:07:26.980Z,2.80
2019-03-08T22:10:15.289Z,2.33
2019-03-08T22:12:44.785Z,2.63
2019-03-08T22:15:14.376Z,2.20
2019-03-08T22:17:43.760Z,2.77
2019-03-08T22:20:13.248Z,2.40
2019-03-08T22:22:42.740Z,2.60
2019-03-08T22:25:12.202Z,2.20
2019-03-08T22:27:43.760Z,2.53
2019-03-08T22:30:14.956Z,2.40
2019-03-08T22:32:44.419Z,2.50
2019-03-08T22:35:13.872Z,2.30
2019-03-08T22:37:44.856Z,2.07
2019-03-08T22:40:14.320Z,2.47
2019-03-08T22:42:43.728Z,2.70
2019-03-08T22:45:13.514Z,2.10
2019-03-08T22:47:42.985Z,2.20
2019-03-08T22:50:13.007Z,2.30
2019-03-08T22:52:42.469Z,2.27
2019-03-08T22:55:12.393Z,2.50
2019-03-08T22:57:42.788Z,2.17
2019-03-08T23:00:34.982Z,2.13
2019-03-08T23:03:04.560Z,2.33
2019-03-08T23:05:34.048Z,2.53
2019-03-08T23:08:03.517Z,2.53
2019-03-08T23:10:32.963Z,1.90
2019-03-08T23:13:02.653Z,2.60
2019-03-08T23:15:32.125Z,2.37
2019-03-08T23:18:01.592Z,2.20
2019-03-08T23:20:31.060Z,2.07
2019-03-08T23:23:00.516Z,2.93
2019-03-08T23:25:30.194Z,2.60
2019-03-08T23:28:17.737Z,2.20
2019-03-08T23:30:48.848Z,2.50
2019-03-08T23:33:18.309Z,2.43
2019-03-08T23:35:47.783Z,3.00
2019-03-08T23:38:17.243Z,2.20
2019-03-08T23:40:46.731Z,3.00
2019-03-08T23:43:16.189Z,3.33
2019-03-08T23:45:45.643Z,2.50
2019-03-08T23:48:15.119Z,2.77
2019-03-08T23:50:44.944Z,2.60
2019-03-08T23:53:14.353Z,3.10
2019-03-08T23:55:43.819Z,4.43
2019-03-08T23:58:13.291Z,2.90
